Time;durP1;ratioP1;P1;durP2;ratioP2;P2;SDS_P1;SDS_P2;PMS_P1;PMS_P2;Temp;Humidity;BMP_temperature;BMP_pressure;BME280_temperature;BME280_humidity;BME280_pressure;Samples;Min_cycle;Max_cycle;Signal;HPM_P1;HPM_P2
2022/03/20 00:00:53;;;;;;;28.90;11.95;;;;;;;3.09;87.00;104153.25;4953424;28;20047;-59
2022/03/20 00:03:21;;;;;;;27.35;11.85;;;;;;;3.12;86.80;104148.38;4952230;28;20082;-60
2022/03/20 00:05:50;;;;;;;25.13;11.32;;;;;;;3.11;86.44;104148.22;4954195;28;20070;-60
2022/03/20 00:08:17;;;;;;;24.77;11.23;;;;;;;3.09;86.48;104148.13;4954690;28;20054;-60
2022/03/20 00:10:45;;;;;;;35.83;12.23;;;;;;;3.06;86.49;104147.88;4956870;28;20423;-60
2022/03/20 00:13:15;;;;;;;22.58;10.35;;;;;;;3.06;86.37;104142.75;4956516;28;20190;-60
2022/03/20 00:15:42;;;;;;;35.38;10.75;;;;;;;3.06;86.32;104142.75;4955484;28;20456;-60
2022/03/20 00:18:09;;;;;;;22.67;10.60;;;;;;;3.04;86.92;104144.31;4953970;28;20257;-60
2022/03/20 00:20:37;;;;;;;21.70;10.57;;;;;;;3.05;86.69;104146.09;4952652;28;20061;-60
2022/03/20 00:23:07;;;;;;;24.02;10.70;;;;;;;3.06;86.56;104147.88;4954287;28;20054;-60
2022/03/20 00:25:34;;;;;;;25.45;11.32;;;;;;;3.07;86.99;104144.53;4952252;28;20061;-59
2022/03/20 00:28:01;;;;;;;29.65;12.05;;;;;;;3.09;86.95;104142.97;4954613;28;20516;-59
2022/03/20 00:30:27;;;;;;;30.50;11.65;;;;;;;3.11;87.05;104144.00;4953241;28;20277;-60
2022/03/20 00:32:53;;;;;;;32.42;13.65;;;;;;;3.11;86.57;104151.69;4954153;28;20050;-61
2022/03/20 00:35:20;;;;;;;93.95;15.93;;;;;;;3.12;87.19;104148.38;4954990;28;20483;-60
2022/03/20 00:37:46;;;;;;;41.60;12.02;;;;;;;3.13;87.11;104150.16;4953307;28;20061;-59
2022/03/20 00:40:14;;;;;;;44.25;14.07;;;;;;;3.13;86.65;104147.59;4952829;28;20062;-59
2022/03/20 00:42:41;;;;;;;33.85;14.85;;;;;;;3.14;86.91;104145.94;4953905;28;20495;-59
2022/03/20 00:45:09;;;;;;;31.35;13.02;;;;;;;3.16;86.62;104146.94;4954577;28;20051;-61
2022/03/20 00:47:35;;;;;;;32.38;13.85;;;;;;;3.17;87.47;104146.16;4954657;28;20070;-60
2022/03/20 00:50:02;;;;;;;32.97;13.98;;;;;;;3.19;87.20;104146.28;4953502;28;20317;-60
2022/03/20 00:52:28;;;;;;;34.10;13.25;;;;;;;3.20;86.67;104142.94;4951995;28;20424;-59
2022/03/20 00:54:55;;;;;;;32.22;14.35;;;;;;;3.22;87.43;104138.81;4953236;28;20058;-60
2022/03/20 00:57:23;;;;;;;35.25;13.77;;;;;;;3.22;86.67;104136.25;4954181;28;20070;-59
2022/03/20 00:59:49;;;;;;;39.65;13.60;;;;;;;3.20;86.36;104130.13;4954853;28;20151;-59
2022/03/20 01:02:15;;;;;;;35.10;14.15;;;;;;;3.12;86.13;104127.88;4955883;28;20432;-60
2022/03/20 01:04:42;;;;;;;34.72;13.40;;;;;;;3.10;86.52;104134.53;4953699;28;20138;-60
2022/03/20 01:07:08;;;;;;;37.60;13.98;;;;;;;3.08;86.20;104136.06;4954806;28;20583;-60
2022/03/20 01:09:35;;;;;;;48.00;16.42;;;;;;;3.05;86.40;104138.41;4959190;28;20462;-60
2022/03/20 01:12:03;;;;;;;36.03;15.15;;;;;;;3.01;86.32;104133.81;4959272;28;20400;-59
2022/03/20 01:14:31;;;;;;;33.85;15.00;;;;;;;2.99;86.17;104130.25;4958716;28;20062;-60
2022/03/20 01:16:58;;;;;;;32.53;15.45;;;;;;;3.01;86.69;104127.81;4958080;28;20138;-59
2022/03/20 01:19:25;;;;;;;31.75;14.30;;;;;;;3.01;86.72;104133.81;4958235;28;20050;-60
2022/03/20 01:21:52;;;;;;;39.08;17.15;;;;;;;3.03;86.78;104132.28;4958140;28;20428;-60
2022/03/20 01:24:19;;;;;;;35.42;15.68;;;;;;;3.02;86.38;104125.34;4956271;28;20046;-60
2022/03/20 01:26:45;;;;;;;37.42;18.40;;;;;;;3.04;86.69;104134.06;4957930;28;20061;-59
2022/03/20 01:29:12;;;;;;;34.47;15.20;;;;;;;3.05;86.53;104132.38;4957891;28;20050;-59
2022/03/20 01:31:40;;;;;;;34.97;16.60;;;;;;;3.07;86.45;104133.41;4960795;28;20054;-60
2022/03/20 01:34:07;;;;;;;36.30;15.98;;;;;;;3.05;86.06;104125.59;4958204;28;20046;-60
2022/03/20 01:36:34;;;;;;;39.75;17.52;;;;;;;3.05;86.07;104124.69;4958213;28;20046;-60
2022/03/20 01:39:00;;;;;;;34.33;16.95;;;;;;;3.05;86.45;104125.59;4956127;28;20054;-60
2022/03/20 01:41:28;;;;;;;38.88;17.48;;;;;;;3.04;85.88;104118.69;4957010;28;20081;-59
2022/03/20 01:43:57;;;;;;;36.38;16.10;;;;;;;3.05;86.07;104123.03;4956827;28;20403;-60
2022/03/20 01:46:24;;;;;;;39.95;18.95;;;;;;;3.05;85.47;104117.91;4959369;28;20276;-59
2022/03/20 01:48:52;;;;;;;41.20;17.83;;;;;;;3.05;85.87;104120.47;4958763;28;20042;-60
2022/03/20 01:52:10;;;;;;;39.63;18.35;;;;;;;3.05;85.67;104120.47;4956586;28;20591;-59
2022/03/20 01:54:05;;;;;;;40.70;17.80;;;;;;;3.05;85.82;104117.91;4955000;28;20050;-59
2022/03/20 01:56:33;;;;;;;44.63;19.15;;;;;;;3.05;85.81;104114.44;4956917;28;20050;-60
2022/03/20 01:59:03;;;;;;;38.72;17.50;;;;;;;3.04;85.17;104113.53;4957491;28;20702;-60
2022/03/20 02:01:29;;;;;;;38.08;18.08;;;;;;;3.04;85.18;104115.22;4956226;28;20070;-59
2022/03/20 02:03:57;;;;;;;40.67;17.95;;;;;;;3.04;85.38;104112.66;4956434;28;20149;-59
2022/03/20 02:06:26;;;;;;;37.33;16.73;;;;;;;3.03;85.13;104111.75;4957931;28;20054;-60
2022/03/20 02:08:54;;;;;;;37.92;17.85;;;;;;;3.02;85.27;104112.53;4955930;28;20145;-60
2022/03/20 02:11:21;;;;;;;39.47;19.05;;;;;;;2.96;84.86;104113.75;4958051;28;20167;-59
2022/03/20 02:13:48;;;;;;;34.38;16.30;;;;;;;2.84;84.90;104118.81;4957036;28;20069;-60
2022/03/20 02:16:15;;;;;;;31.38;16.33;;;;;;;2.74;84.33;104116.34;4957117;28;20054;-60
2022/03/20 02:18:41;;;;;;;41.10;18.52;;;;;;;2.66;84.74;104109.72;4955707;28;20051;-60
2022/03/20 02:21:09;;;;;;;40.08;19.17;;;;;;;2.60;84.74;104106.66;4956298;28;20153;-60
2022/03/20 02:23:36;;;;;;;37.70;18.00;;;;;;;2.59;84.68;104099.75;4958676;28;20486;-60
2022/03/20 02:26:03;;;;;;;42.78;20.23;;;;;;;2.58;85.45;104103.97;4955948;28;20201;-59
2022/03/20 02:28:30;;;;;;;37.60;18.00;;;;;;;2.58;85.75;104097.97;4955902;28;20054;-59
2022/03/20 02:30:57;;;;;;;34.53;17.20;;;;;;;2.60;85.32;104094.78;4955584;28;21033;-60
2022/03/20 02:33:27;;;;;;;36.38;18.02;;;;;;;2.63;85.59;104096.69;4956277;28;21867;-59
2022/03/20 02:35:54;;;;;;;46.10;20.17;;;;;;;2.63;85.44;104099.25;4956375;28;20562;-59
2022/03/20 02:38:23;;;;;;;45.67;19.73;;;;;;;2.63;85.21;104096.69;4956826;28;20039;-61
2022/03/20 02:40:51;;;;;;;51.38;21.35;;;;;;;2.63;85.24;104092.47;4954767;28;20558;-60
2022/03/20 02:43:18;;;;;;;50.58;21.33;;;;;;;2.65;85.24;104087.47;4958015;28;20789;-60
2022/03/20 02:45:44;;;;;;;46.03;21.30;;;;;;;2.66;85.25;104086.69;4956309;28;21415;-60
2022/03/20 02:48:12;;;;;;;45.72;20.05;;;;;;;2.66;85.63;104087.56;4956277;28;20050;-60
2022/03/20 02:50:40;;;;;;;47.83;21.73;;;;;;;2.67;85.11;104085.91;4956538;28;20050;-60
2022/03/20 02:53:11;;;;;;;46.08;19.88;;;;;;;2.67;85.55;104084.22;4955740;28;20073;-60
2022/03/20 02:55:41;;;;;;;51.22;22.40;;;;;;;2.67;85.29;104083.34;4953642;28;20189;-60
2022/03/20 02:58:10;;;;;;;40.42;18.50;;;;;;;2.65;85.12;104095.13;4955693;28;20820;-59
2022/03/20 03:00:39;;;;;;;45.50;20.88;;;;;;;2.66;85.00;104092.69;4954982;28;20099;-60
2022/03/20 03:03:06;;;;;;;46.08;20.25;;;;;;;2.64;85.06;104091.69;4957662;28;20825;-60
2022/03/20 03:05:33;;;;;;;40.50;18.85;;;;;;;2.64;84.90;104088.22;4956050;28;20105;-59
2022/03/20 03:10:57;;;;;;;43.53;19.73;;;;;;;2.61;84.65;104091.44;4920999;28;20066;-60
2022/03/20 03:13:25;;;;;;;50.78;23.40;;;;;;;2.60;84.73;104093.84;4955431;28;20058;-59
2022/03/20 03:15:52;;;;;;;49.90;22.02;;;;;;;2.61;84.90;104098.25;4954677;28;20511;-58
2022/03/20 03:18:18;;;;;;;57.45;22.73;;;;;;;2.61;84.91;104090.56;4958154;28;20053;-60
2022/03/20 03:20:45;;;;;;;45.22;21.42;;;;;;;2.62;84.37;104100.03;4955230;28;20096;-59
2022/03/20 03:23:12;;;;;;;43.75;19.83;;;;;;;2.63;84.69;104096.69;4955831;28;20150;-60
2022/03/20 03:25:40;;;;;;;51.00;19.92;;;;;;;2.64;84.93;104090.78;4955792;28;20078;-60
2022/03/20 03:28:09;;;;;;;53.70;22.98;;;;;;;2.64;84.93;104093.34;4955382;28;20215;-60
2022/03/20 03:30:36;;;;;;;52.13;22.63;;;;;;;2.58;84.94;104092.84;4955648;28;20054;-60
2022/03/20 03:33:03;;;;;;;48.05;21.70;;;;;;;2.56;84.77;104091.84;4954702;28;20058;-60
2022/03/20 03:35:51;;;;;;;49.75;21.20;;;;;;;2.54;84.86;104087.50;4954014;28;20050;-59
2022/03/20 03:38:19;;;;;;;45.55;20.73;;;;;;;2.54;84.48;104086.59;4957054;28;20076;-59
2022/03/20 03:40:48;;;;;;;54.45;22.10;;;;;;;2.52;84.65;104083.91;4955152;28;20055;-61
2022/03/20 03:43:18;;;;;;;45.72;20.63;;;;;;;2.49;84.92;104083.69;4954121;28;20426;-59
2022/03/20 03:45:45;;;;;;;53.95;23.30;;;;;;;2.49;84.53;104075.09;4955538;28;20452;-59
2022/03/20 03:48:12;;;;;;;51.88;22.15;;;;;;;2.49;85.05;104081.13;4954293;28;20054;-59
2022/03/20 03:50:42;;;;;;;51.50;22.88;;;;;;;2.47;84.90;104079.22;4954027;28;20488;-59
2022/03/20 03:53:09;;;;;;;50.47;22.88;;;;;;;2.44;85.07;104081.53;4955973;28;20055;-59
2022/03/20 03:55:36;;;;;;;53.03;22.80;;;;;;;2.43;84.71;104083.19;4955836;28;20046;-59
2022/03/20 03:58:03;;;;;;;49.72;20.70;;;;;;;2.39;84.31;104086.31;4955745;28;20062;-59
2022/03/20 04:00:33;;;;;;;49.67;21.08;;;;;;;2.37;85.06;104098.09;4955132;28;20055;-59
2022/03/20 04:02:59;;;;;;;53.50;22.25;;;;;;;2.37;84.33;104077.59;4955090;28;20057;-59
2022/03/20 04:05:27;;;;;;;62.72;21.98;;;;;;;2.36;84.34;104080.94;4955492;28;20177;-59
2022/03/20 04:07:54;;;;;;;51.63;22.75;;;;;;;2.31;84.52;104084.81;4954360;28;20542;-59
2022/03/20 04:10:21;;;;;;;57.72;22.48;;;;;;;2.28;84.55;104086.25;4956878;28;20735;-59
2022/03/20 04:12:49;;;;;;;57.90;23.33;;;;;;;2.27;84.42;104089.56;4955169;28;20520;-60
2022/03/20 04:15:17;;;;;;;62.78;23.50;;;;;;;2.26;84.42;104088.69;4954593;28;20459;-59
2022/03/20 04:17:45;;;;;;;50.83;20.83;;;;;;;2.26;84.92;104098.91;4953035;28;20055;-60
2022/03/20 04:20:13;;;;;;;53.50;20.75;;;;;;;2.26;84.75;104093.78;4953608;28;21014;-61
2022/03/20 04:23:42;;;;;;;51.45;21.40;;;;;;;2.23;84.46;104091.00;4953924;28;20170;-59
2022/03/20 04:25:28;;;;;;;49.60;21.08;;;;;;;2.20;84.58;104093.31;4953530;28;20452;-60
2022/03/20 04:27:56;;;;;;;59.05;20.17;;;;;;;2.17;84.19;104093.97;4954258;28;20054;-59
2022/03/20 04:30:24;;;;;;;47.55;19.17;;;;;;;2.14;84.41;104093.72;4953388;28;20365;-59
2022/03/20 04:32:52;;;;;;;46.90;21.63;;;;;;;2.12;84.13;104089.25;4953671;28;20357;-60
2022/03/20 04:35:21;;;;;;;62.35;23.60;;;;;;;2.11;84.60;104095.16;4952756;28;20042;-60
2022/03/20 04:37:48;;;;;;;55.63;21.20;;;;;;;2.11;84.21;104088.38;4953569;28;20047;-60
2022/03/20 04:40:15;;;;;;;44.83;19.55;;;;;;;2.10;84.11;104088.25;4952644;28;20433;-60
2022/03/20 04:42:41;;;;;;;53.83;21.88;;;;;;;2.08;84.57;104098.38;4957307;28;20475;-58
2022/03/20 04:45:10;;;;;;;59.17;21.48;;;;;;;2.08;84.38;104097.44;4960520;28;20042;-59
2022/03/20 04:58:43;;;;;;;66.07;21.13;;;;;;;1.78;83.83;104099.34;4958505;28;20058;-58
2022/03/20 05:01:10;;;;;;;93.38;23.85;;;;;;;1.74;83.57;104093.84;4960225;28;20077;-60
2022/03/20 05:03:36;;;;;;;91.50;24.08;;;;;;;1.68;84.34;104099.38;4959134;28;20133;-60
2022/03/20 05:06:05;;;;;;;69.30;23.70;;;;;;;1.65;84.34;104104.22;4959761;28;20050;-59
2022/03/20 05:08:32;;;;;;;53.70;21.92;;;;;;;1.64;84.80;104102.44;4960286;28;20055;-59
2022/03/20 05:13:44;;;;;;;59.08;23.40;;;;;;;1.68;85.16;104099.38;4955795;28;20066;-60
2022/03/20 05:16:10;;;;;;;89.13;27.63;;;;;;;1.69;85.51;104103.72;4959578;28;20054;-59
2022/03/20 05:18:36;;;;;;;69.18;24.50;;;;;;;1.69;85.14;104111.38;4958183;28;20703;-59
2022/03/20 05:21:04;;;;;;;62.80;22.75;;;;;;;1.69;85.57;104115.59;4961587;28;20546;-59
2022/03/20 05:23:31;;;;;;;51.65;20.90;;;;;;;1.70;85.34;104115.72;4960575;28;20069;-59
2022/03/20 05:25:57;;;;;;;53.58;22.77;;;;;;;1.71;85.31;104117.50;4957536;28;20046;-60
2022/03/20 05:28:23;;;;;;;66.22;25.75;;;;;;;1.73;85.37;104121.09;4958092;28;20562;-60
2022/03/20 05:30:51;;;;;;;74.90;25.80;;;;;;;1.75;85.38;104114.44;4956373;28;20055;-59
2022/03/20 05:33:17;;;;;;;63.58;25.15;;;;;;;1.76;85.23;104108.56;4957682;28;20142;-60
2022/03/20 05:35:45;;;;;;;64.70;26.33;;;;;;;1.78;85.33;104117.25;4958654;28;20495;-59
2022/03/20 05:38:13;;;;;;;60.55;25.20;;;;;;;1.82;85.70;104114.16;4956766;28;20531;-60
2022/03/20 05:40:41;;;;;;;57.55;23.85;;;;;;;1.85;85.66;104119.53;4958421;28;20452;-59
2022/03/20 05:43:08;;;;;;;63.35;22.45;;;;;;;1.85;85.15;104114.41;4958867;28;20039;-60
2022/03/20 05:45:37;;;;;;;87.93;27.70;;;;;;;1.85;85.39;104124.63;4957369;28;20102;-60
2022/03/20 05:48:04;;;;;;;82.38;27.90;;;;;;;1.83;85.29;104131.28;4956443;28;20054;-60
2022/03/20 05:50:30;;;;;;;66.13;26.52;;;;;;;1.85;85.30;104123.75;4956159;28;20269;-60
2022/03/20 05:52:57;;;;;;;65.20;25.85;;;;;;;1.85;85.38;104134.88;4956030;28;20058;-60
2022/03/20 05:58:05;;;;;;;69.50;28.05;;;;;;;1.94;85.72;104138.94;4958824;28;20082;-60
2022/03/20 06:00:32;;;;;;;66.35;26.35;;;;;;;1.97;85.79;104149.41;4956901;28;20051;-61
2022/03/20 06:03:01;;;;;;;73.85;27.40;;;;;;;2.00;85.19;104144.56;4955887;28;20066;-60
2022/03/20 06:05:27;;;;;;;70.53;27.92;;;;;;;2.02;85.00;104136.22;4956850;28;20058;-60
2022/03/20 06:07:54;;;;;;;108.57;30.88;;;;;;;2.03;85.48;104145.69;4957456;28;20476;-59
2022/03/20 06:10:21;;;;;;;53.35;23.33;;;;;;;2.02;85.13;104153.25;4959720;28;20508;-60
2022/03/20 06:12:50;;;;;;;70.15;27.27;;;;;;;2.02;84.85;104148.13;4957194;28;20058;-59
2022/03/20 06:15:16;;;;;;;76.30;29.25;;;;;;;2.01;85.34;104152.34;4956202;28;20058;-60
2022/03/20 06:17:44;;;;;;;66.28;26.40;;;;;;;2.04;85.27;104152.59;4957776;28;20514;-60
2022/03/20 06:20:12;;;;;;;65.38;25.55;;;;;;;2.08;85.11;104154.66;4954624;28;20128;-58
2022/03/20 06:22:38;;;;;;;61.30;25.65;;;;;;;2.14;84.97;104154.25;4955244;28;20134;-60
2022/03/20 06:25:08;;;;;;;60.05;25.45;;;;;;;2.16;84.73;104151.06;4955903;28;20047;-60
2022/03/20 06:27:50;;;;;;;60.15;24.65;;;;;;;2.19;84.72;104152.97;4956519;28;20106;-61
2022/03/20 06:30:18;;;;;;;58.92;24.73;;;;;;;2.23;84.62;104160.13;4956263;28;20082;-60
2022/03/20 06:32:46;;;;;;;50.58;24.08;;;;;;;2.27;83.90;104157.03;4957354;28;20065;-60
2022/03/20 06:35:14;;;;;;;53.60;24.35;;;;;;;2.29;83.71;104175.06;4954781;28;20401;-59
2022/03/20 06:37:42;;;;;;;55.17;22.00;;;;;;;2.30;83.57;104169.19;4955684;28;20177;-60
2022/03/20 06:40:09;;;;;;;55.67;24.58;;;;;;;2.32;83.64;104162.50;4958264;28;20158;-60
2022/03/20 06:42:36;;;;;;;56.17;23.08;;;;;;;2.35;83.40;104163.66;4961029;28;20110;-60
2022/03/20 06:45:07;;;;;;;52.10;23.05;;;;;;;2.42;83.55;104163.34;4958777;28;20047;-58
2022/03/20 06:47:34;;;;;;;67.25;27.55;;;;;;;2.50;83.70;104169.97;4956646;28;20062;-60
2022/03/20 06:50:01;;;;;;;78.18;32.13;;;;;;;2.57;83.20;104167.91;4955585;28;20063;-60
2022/03/20 06:52:29;;;;;;;62.17;27.30;;;;;;;2.64;83.32;104165.06;4958681;28;20632;-59
2022/03/20 06:54:56;;;;;;;77.22;32.08;;;;;;;2.69;82.99;104169.78;4956053;28;20158;-60
2022/03/20 06:57:23;;;;;;;63.25;26.48;;;;;;;2.72;82.50;104164.00;4956438;28;20061;-59
2022/03/20 06:59:51;;;;;;;74.25;31.65;;;;;;;2.77;82.81;104163.59;4956128;28;20054;-61
2022/03/20 07:02:19;;;;;;;68.10;30.02;;;;;;;2.85;81.75;104166.75;4956453;28;20165;-59
2022/03/20 07:04:47;;;;;;;59.50;26.83;;;;;;;2.96;82.31;104170.13;4955049;28;20047;-60
2022/03/20 07:07:13;;;;;;;62.88;26.13;;;;;;;3.06;82.43;104168.38;4953390;28;20059;-59
2022/03/20 07:09:40;;;;;;;60.83;25.02;;;;;;;3.26;82.14;104169.03;4956027;28;20468;-59
2022/03/20 07:12:07;;;;;;;65.78;27.20;;;;;;;3.48;82.12;104164.75;4958094;28;20054;-59
2022/03/20 07:14:34;;;;;;;75.38;32.60;;;;;;;3.67;81.81;104167.03;4956569;28;20511;-59
2022/03/20 07:17:01;;;;;;;61.92;25.33;;;;;;;3.88;80.96;104172.84;4954611;28;20091;-59
2022/03/20 07:19:30;;;;;;;62.00;27.20;;;;;;;4.09;80.77;104169.28;4955936;28;20066;-59
2022/03/20 07:21:57;;;;;;;59.97;28.00;;;;;;;4.25;79.65;104176.44;4955580;28;20428;-60
2022/03/20 07:24:23;;;;;;;63.22;27.55;;;;;;;4.35;78.36;104181.44;4955957;28;20074;-60
2022/03/20 07:29:34;;;;;;;53.97;26.15;;;;;;;4.55;76.01;104198.28;4955592;28;20225;-59
2022/03/20 07:32:02;;;;;;;51.92;24.77;;;;;;;4.67;76.86;104189.75;4955475;28;20125;-60
2022/03/20 07:34:34;;;;;;;55.42;26.05;;;;;;;4.93;75.99;104199.31;4955823;28;20475;-60
2022/03/20 07:37:00;;;;;;;53.28;24.00;;;;;;;5.12;75.78;104195.44;4955269;28;20515;-61
2022/03/20 07:39:27;;;;;;;51.33;25.65;;;;;;;5.39;75.96;104189.63;4953850;28;20237;-60
2022/03/20 07:41:53;;;;;;;56.65;27.58;;;;;;;5.70;74.71;104190.88;4946534;28;20055;-60
2022/03/20 07:44:22;;;;;;;52.08;25.95;;;;;;;5.99;73.56;104186.81;4944332;28;20101;-59
2022/03/20 07:46:49;;;;;;;47.47;23.33;;;;;;;6.24;71.84;104187.63;4943855;28;20419;-60
2022/03/20 07:49:15;;;;;;;49.65;23.60;;;;;;;6.50;70.12;104185.81;4943791;28;20051;-60
2022/03/20 07:51:44;;;;;;;46.20;23.45;;;;;;;6.74;69.98;104179.59;4941245;28;20269;-60
2022/03/20 07:54:10;;;;;;;54.70;28.65;;;;;;;6.99;69.41;104183.72;4943670;28;20066;-59
2022/03/20 07:56:37;;;;;;;43.08;23.67;;;;;;;7.25;68.46;104188.75;4944251;28;20058;-60
2022/03/20 07:59:05;;;;;;;42.47;23.42;;;;;;;7.55;67.65;104180.28;4944118;28;20639;-61
2022/03/20 08:01:32;;;;;;;47.70;25.55;;;;;;;7.88;66.60;104172.72;4945757;28;20374;-58
2022/03/20 08:03:59;;;;;;;40.17;22.35;;;;;;;8.26;66.30;104185.19;4942995;28;20146;-60
2022/03/20 08:06:25;;;;;;;38.63;23.52;;;;;;;8.67;64.96;104190.13;4943129;28;20062;-60
2022/03/20 08:08:53;;;;;;;44.13;25.42;;;;;;;9.10;63.66;104184.66;4942578;28;20062;-60
2022/03/20 08:11:20;;;;;;;40.30;23.73;;;;;;;9.58;62.60;104194.06;4944535;28;20610;-59
2022/03/20 08:13:47;;;;;;;42.47;24.98;;;;;;;10.00;60.40;104184.97;4945211;28;20070;-59
2022/03/20 08:16:16;;;;;;;40.97;23.58;;;;;;;10.43;59.22;104190.53;4944191;28;20039;-59
2022/03/20 08:18:44;;;;;;;42.88;23.80;;;;;;;10.94;57.36;104187.69;4946355;28;20047;-61
2022/03/20 08:21:11;;;;;;;40.60;24.27;;;;;;;11.38;55.30;104180.13;4946432;28;20082;-60
2022/03/20 08:23:38;;;;;;;36.67;22.33;;;;;;;11.76;53.89;104186.06;4944783;28;20051;-60
2022/03/20 08:26:07;;;;;;;39.17;23.30;;;;;;;12.16;51.18;104182.53;4943889;28;20043;-60
2022/03/20 08:28:34;;;;;;;38.30;22.83;;;;;;;12.53;47.94;104185.75;4942494;28;20094;-58
2022/03/20 08:31:01;;;;;;;38.40;23.88;;;;;;;12.87;47.25;104187.00;4945049;28;20054;-58
2022/03/20 08:33:28;;;;;;;35.33;21.90;;;;;;;13.24;46.98;104176.25;4941281;28;20750;-58
2022/03/20 08:35:54;;;;;;;32.55;20.98;;;;;;;13.61;46.68;104185.34;4942170;28;20539;-59
2022/03/20 08:38:21;;;;;;;38.00;26.02;;;;;;;13.99;45.21;104184.88;4943100;28;20047;-59
2022/03/20 08:40:48;;;;;;;42.97;26.20;;;;;;;13.97;44.48;104180.44;4947177;28;20058;-59
2022/03/20 08:43:16;;;;;;;37.80;23.83;;;;;;;13.98;44.70;104177.00;4956788;28;20061;-59
2022/03/20 08:45:44;;;;;;;38.55;25.05;;;;;;;13.91;43.54;104178.53;4955343;28;20433;-60
2022/03/20 08:48:11;;;;;;;38.13;24.75;;;;;;;13.88;43.29;104178.44;4955213;28;20051;-59
2022/03/20 08:50:38;;;;;;;38.92;24.80;;;;;;;13.78;42.79;104178.97;4952468;28;20055;-60
2022/03/20 08:53:05;;;;;;;38.70;24.77;;;;;;;13.63;42.19;104179.34;4953791;28;20050;-60
2022/03/20 08:55:33;;;;;;;45.47;27.92;;;;;;;13.52;41.69;104183.28;4954500;28;20555;-60
2022/03/20 08:58:00;;;;;;;40.67;25.42;;;;;;;13.17;41.99;104182.97;4956765;28;20057;-60
2022/03/20 09:00:29;;;;;;;39.75;25.20;;;;;;;12.85;42.41;104184.34;4957450;28;20584;-60
2022/03/20 09:02:55;;;;;;;40.42;25.17;;;;;;;12.61;42.66;104181.72;4959677;28;20904;-60
2022/03/20 09:05:22;;;;;;;45.40;26.02;;;;;;;12.46;43.04;104183.72;4958598;28;20051;-61
2022/03/20 09:07:50;;;;;;;45.20;27.13;;;;;;;12.30;43.33;104173.56;4960067;28;20074;-60
2022/03/20 09:10:17;;;;;;;47.13;26.88;;;;;;;12.17;43.21;104168.72;4960134;28;20062;-60
2022/03/20 09:12:45;;;;;;;45.67;26.77;;;;;;;12.11;43.40;104173.66;4962511;28;20106;-58
2022/03/20 09:15:13;;;;;;;48.22;26.17;;;;;;;11.96;43.71;104164.41;4962392;28;20448;-59
2022/03/20 09:20:25;;;;;;;41.95;25.65;;;;;;;11.86;44.23;104161.38;4959990;28;20062;-59
2022/03/20 09:22:52;;;;;;;40.58;23.48;;;;;;;11.86;44.38;104156.16;4960413;28;20453;-60
2022/03/20 09:25:19;;;;;;;48.35;27.17;;;;;;;11.91;42.84;104160.72;4960546;28;20077;-59
2022/03/20 09:27:48;;;;;;;47.92;24.85;;;;;;;11.98;42.62;104151.50;4960270;28;20157;-59
2022/03/20 09:30:15;;;;;;;38.35;21.88;;;;;;;12.00;43.01;104158.53;4964219;28;20102;-59
2022/03/20 09:32:43;;;;;;;36.40;20.65;;;;;;;11.97;43.43;104155.81;4964282;28;20125;-58
2022/03/20 09:35:11;;;;;;;34.38;18.33;;;;;;;12.02;42.77;104152.50;4964167;28;20077;-59
2022/03/20 09:37:39;;;;;;;31.15;17.85;;;;;;;11.97;41.55;104150.59;4963588;28;20058;-60
2022/03/20 09:40:09;;;;;;;33.30;19.30;;;;;;;11.98;41.10;104157.59;4963569;28;20046;-60
2022/03/20 09:42:37;;;;;;;33.90;18.80;;;;;;;11.90;40.28;104148.56;4962972;28;20059;-60
2022/03/20 09:45:05;;;;;;;32.13;18.08;;;;;;;11.82;39.87;104149.97;4965375;28;20051;-60
2022/03/20 09:47:36;;;;;;;35.97;21.00;;;;;;;11.78;39.99;104147.19;4964433;28;20552;-59
2022/03/20 09:50:05;;;;;;;46.72;23.77;;;;;;;11.90;40.76;104143.34;4964365;28;20062;-62
2022/03/20 09:52:32;;;;;;;32.25;19.13;;;;;;;11.98;40.03;104151.50;4964440;28;20054;-60
2022/03/20 09:54:59;;;;;;;27.88;17.08;;;;;;;12.10;39.61;104151.09;4964154;28;20050;-59
2022/03/20 09:57:29;;;;;;;27.42;16.13;;;;;;;12.10;38.83;104141.56;4964128;28;20043;-59
2022/03/20 09:59:57;;;;;;;30.88;18.70;;;;;;;12.14;38.36;104137.38;4963493;28;20133;-60
2022/03/20 10:02:28;;;;;;;28.52;16.17;;;;;;;12.22;38.12;104143.75;4964185;28;20472;-60
2022/03/20 10:04:55;;;;;;;25.38;16.00;;;;;;;12.31;38.92;104145.00;4964001;28;20055;-62
2022/03/20 10:07:24;;;;;;;24.20;15.13;;;;;;;12.29;36.95;104145.78;4964388;28;20742;-60
2022/03/20 10:10:23;;;;;;;24.55;15.75;;;;;;;12.45;35.59;104136.81;4964279;28;20681;-60
2022/03/20 10:12:53;;;;;;;27.92;15.90;;;;;;;12.56;37.53;104140.75;4884628;29;20552;-60
2022/03/20 10:15:31;;;;;;;22.25;14.55;;;;;;;12.62;35.74;104134.06;4948641;28;20074;-61
2022/03/20 10:18:10;;;;;;;25.50;15.20;;;;;;;12.53;35.29;104136.31;4964132;28;20790;-60
2022/03/20 10:20:38;;;;;;;23.58;14.05;;;;;;;12.51;36.17;104137.97;4964118;28;20420;-61
2022/03/20 10:23:26;;;;;;;22.27;13.85;;;;;;;12.52;35.90;104137.16;4965595;28;20489;-60
2022/03/20 10:25:53;;;;;;;19.30;13.18;;;;;;;12.57;35.72;104125.19;4964562;28;20103;-59
2022/03/20 10:28:20;;;;;;;23.20;13.90;;;;;;;12.59;36.30;104128.72;4963986;28;20429;-59
2022/03/20 10:30:56;;;;;;;19.17;12.45;;;;;;;12.67;33.12;104123.81;4963847;28;20727;-59
2022/03/20 10:33:23;;;;;;;19.58;12.32;;;;;;;12.70;33.76;104115.22;4964222;28;20059;-59
2022/03/20 10:36:12;;;;;;;19.63;13.02;;;;;;;12.68;32.68;104109.97;4964321;28;20162;-59
2022/03/20 10:38:41;;;;;;;17.35;11.40;;;;;;;12.61;32.25;104111.47;4964383;28;20732;-59
2022/03/20 10:41:22;;;;;;;21.42;12.63;;;;;;;12.63;31.92;104115.00;4962306;28;20123;-60
2022/03/20 10:43:50;;;;;;;17.75;11.60;;;;;;;12.72;32.62;104101.44;4963510;28;20074;-60
2022/03/20 10:46:21;;;;;;;18.08;11.32;;;;;;;12.74;32.32;104099.78;4965624;28;20423;-59
2022/03/20 10:48:50;;;;;;;17.20;11.23;;;;;;;12.68;31.36;104096.06;4963011;28;20054;-59
2022/03/20 10:51:37;;;;;;;17.15;10.95;;;;;;;12.61;30.16;104100.16;4962043;28;20050;-60
2022/03/20 10:54:07;;;;;;;17.20;10.07;;;;;;;12.60;31.96;104093.19;4962944;28;20073;-59
2022/03/20 10:56:34;;;;;;;15.57;10.35;;;;;;;12.70;31.16;104089.19;4961849;28;20090;-60
2022/03/20 10:59:02;;;;;;;19.33;11.55;;;;;;;12.70;30.75;104086.59;4964620;28;20065;-60
2022/03/20 11:01:36;;;;;;;16.77;10.63;;;;;;;12.67;30.87;104083.88;4962745;28;20054;-59
2022/03/20 11:04:05;;;;;;;15.07;10.00;;;;;;;12.73;30.36;104084.09;4961786;28;20444;-59
2022/03/20 11:06:31;;;;;;;20.13;11.02;;;;;;;12.77;31.09;104072.97;4961775;28;20054;-59
2022/03/20 11:09:02;;;;;;;16.88;10.93;;;;;;;12.78;30.76;104073.00;4961723;28;20063;-58
2022/03/20 11:11:30;;;;;;;14.10;9.35;;;;;;;12.79;30.84;104063.50;4961405;28;21025;-59
2022/03/20 11:13:59;;;;;;;15.65;10.07;;;;;;;12.81;30.87;104061.81;4964370;28;20491;-59
2022/03/20 11:16:28;;;;;;;14.07;8.20;;;;;;;12.84;30.07;104062.81;4961624;28;20270;-60
2022/03/20 11:18:57;;;;;;;14.38;9.65;;;;;;;12.77;28.90;104059.94;4962130;28;20082;-60
2022/03/20 11:21:25;;;;;;;20.98;12.68;;;;;;;12.76;28.99;104059.06;4963637;28;20493;-59
2022/03/20 11:23:54;;;;;;;14.85;9.85;;;;;;;12.74;28.85;104045.09;4961004;28;20058;-60
2022/03/20 11:26:21;;;;;;;13.20;9.45;;;;;;;12.74;29.05;104045.09;4961890;28;20074;-60
2022/03/20 11:28:54;;;;;;;14.38;9.63;;;;;;;12.73;28.49;104042.44;4961978;28;20051;-60
2022/03/20 11:31:22;;;;;;;15.52;9.55;;;;;;;12.68;29.17;104036.19;4962017;28;20057;-60
2022/03/20 11:33:49;;;;;;;13.07;9.48;;;;;;;12.65;29.26;104042.19;4962494;28;20046;-60
2022/03/20 11:36:16;;;;;;;14.52;9.00;;;;;;;12.61;29.66;104033.38;4960602;28;20046;-59
2022/03/20 11:38:42;;;;;;;12.10;8.50;;;;;;;12.67;29.03;104026.63;4963138;28;20062;-59
2022/03/20 11:41:14;;;;;;;12.98;8.75;;;;;;;12.67;27.64;104026.63;4955019;28;20067;-61
2022/03/20 11:43:43;;;;;;;15.18;9.18;;;;;;;12.67;29.04;104026.63;4949920;28;20134;-59